sensor_id;sensor_type;location;lat;lon;timestamp;pressure;altitude;pressure_sealevel;temperature;humidity
27712;BME280;2377;51.734;8.950;2023-04-20T00:01:36;98174.91;;;7.86;59.46
27712;BME280;2377;51.734;8.950;2023-04-20T00:04:04;98180.34;;;7.83;59.66
27712;BME280;2377;51.734;8.950;2023-04-20T00:06:31;98179.94;;;7.79;58.56
27712;BME280;2377;51.734;8.950;2023-04-20T00:09:00;98180.34;;;7.83;59.99
27712;BME280;2377;51.734;8.950;2023-04-20T00:11:27;98171.75;;;7.84;59.07
27712;BME280;2377;51.734;8.950;2023-04-20T00:13:54;98162.34;;;7.84;59.60
27712;BME280;2377;51.734;8.950;2023-04-20T00:16:21;98151.22;;;7.86;59.53
27712;BME280;2377;51.734;8.950;2023-04-20T00:18:48;98147.09;;;7.84;59.23
27712;BME280;2377;51.734;8.950;2023-04-20T00:21:15;98144.53;;;7.84;59.54
27712;BME280;2377;51.734;8.950;2023-04-20T00:23:42;98140.44;;;7.83;59.54
27712;BME280;2377;51.734;8.950;2023-04-20T00:26:10;98139.06;;;7.81;59.60
27712;BME280;2377;51.734;8.950;2023-04-20T00:28:37;98135.28;;;7.77;59.29
27712;BME280;2377;51.734;8.950;2023-04-20T00:31:05;98127.84;;;7.75;59.43
27712;BME280;2377;51.734;8.950;2023-04-20T00:33:32;98136.47;;;7.74;60.54
27712;BME280;2377;51.734;8.950;2023-04-20T00:35:58;98130.59;;;7.74;61.13
27712;BME280;2377;51.734;8.950;2023-04-20T00:38:25;98126.63;;;7.71;60.88
27712;BME280;2377;51.734;8.950;2023-04-20T00:40:54;98123.69;;;7.68;60.93
27712;BME280;2377;51.734;8.950;2023-04-20T00:43:22;98129.56;;;7.68;61.46
27712;BME280;2377;51.734;8.950;2023-04-20T00:45:49;98119.16;;;7.63;63.42
27712;BME280;2377;51.734;8.950;2023-04-20T00:48:17;98123.22;;;7.57;64.78
27712;BME280;2377;51.734;8.950;2023-04-20T00:50:45;98133.97;;;7.53;65.27
27712;BME280;2377;51.734;8.950;2023-04-20T00:53:12;98131.16;;;7.48;65.89
27712;BME280;2377;51.734;8.950;2023-04-20T00:55:42;98117.06;;;7.45;66.38
27712;BME280;2377;51.734;8.950;2023-04-20T00:58:09;98118.75;;;7.38;67.78
27712;BME280;2377;51.734;8.950;2023-04-20T01:00:38;98117.97;;;7.37;67.72
27712;BME280;2377;51.734;8.950;2023-04-20T01:03:07;98115.44;;;7.37;67.70
27712;BME280;2377;51.734;8.950;2023-04-20T01:05:34;98108.38;;;7.33;68.27
27712;BME280;2377;51.734;8.950;2023-04-20T01:08:01;98104.44;;;7.30;68.78
27712;BME280;2377;51.734;8.950;2023-04-20T01:10:28;98107.13;;;7.22;70.03
27712;BME280;2377;51.734;8.950;2023-04-20T01:12:55;98100.81;;;7.18;70.82
27712;BME280;2377;51.734;8.950;2023-04-20T01:15:22;98094.47;;;7.07;71.83
27712;BME280;2377;51.734;8.950;2023-04-20T01:17:50;98096.81;;;7.09;71.61
27712;BME280;2377;51.734;8.950;2023-04-20T01:20:18;98093.28;;;7.03;72.46
27712;BME280;2377;51.734;8.950;2023-04-20T01:22:48;98097.31;;;6.97;72.75
27712;BME280;2377;51.734;8.950;2023-04-20T01:25:17;98093.56;;;6.93;73.51
27712;BME280;2377;51.734;8.950;2023-04-20T01:27:44;98082.75;;;6.85;74.42
27712;BME280;2377;51.734;8.950;2023-04-20T01:30:12;98084.22;;;6.79;74.79
27712;BME280;2377;51.734;8.950;2023-04-20T01:32:39;98072.44;;;6.71;75.70
27712;BME280;2377;51.734;8.950;2023-04-20T01:35:08;98072.97;;;6.67;76.11
27712;BME280;2377;51.734;8.950;2023-04-20T01:37:35;98072.19;;;6.66;76.37
27712;BME280;2377;51.734;8.950;2023-04-20T01:40:07;98066.28;;;6.59;78.11
27712;BME280;2377;51.734;8.950;2023-04-20T01:42:34;98064.88;;;6.56;78.01
27712;BME280;2377;51.734;8.950;2023-04-20T01:45:01;98054.81;;;6.48;78.44
27712;BME280;2377;51.734;8.950;2023-04-20T01:47:30;98056.75;;;6.46;78.74
27712;BME280;2377;51.734;8.950;2023-04-20T01:49:57;98049.94;;;6.47;79.31
27712;BME280;2377;51.734;8.950;2023-04-20T01:52:24;98051.25;;;6.43;79.86
27712;BME280;2377;51.734;8.950;2023-04-20T01:54:51;98047.50;;;6.39;80.72
27712;BME280;2377;51.734;8.950;2023-04-20T01:57:19;98042.94;;;6.34;81.08
27712;BME280;2377;51.734;8.950;2023-04-20T01:59:46;98036.13;;;6.34;81.05
27712;BME280;2377;51.734;8.950;2023-04-20T02:02:12;98034.38;;;6.35;81.31
27712;BME280;2377;51.734;8.950;2023-04-20T02:04:39;98030.25;;;6.34;81.54
27712;BME280;2377;51.734;8.950;2023-04-20T02:07:06;98032.19;;;6.32;81.50
27712;BME280;2377;51.734;8.950;2023-04-20T02:09:33;98033.50;;;6.28;82.31
27712;BME280;2377;51.734;8.950;2023-04-20T02:12:00;98040.53;;;6.26;82.99
27712;BME280;2377;51.734;8.950;2023-04-20T02:14:29;98033.09;;;6.24;82.78
27712;BME280;2377;51.734;8.950;2023-04-20T02:16:57;98029.94;;;6.22;83.32
27712;BME280;2377;51.734;8.950;2023-04-20T02:19:24;98025.31;;;6.26;82.74
27712;BME280;2377;51.734;8.950;2023-04-20T02:21:50;98028.78;;;6.25;83.13
27712;BME280;2377;51.734;8.950;2023-04-20T02:24:17;98023.72;;;6.25;83.31
27712;BME280;2377;51.734;8.950;2023-04-20T02:26:44;98027.22;;;6.24;83.27
27712;BME280;2377;51.734;8.950;2023-04-20T02:29:11;98026.38;;;6.17;83.66
27712;BME280;2377;51.734;8.950;2023-04-20T02:31:39;98024.78;;;6.16;83.91
27712;BME280;2377;51.734;8.950;2023-04-20T02:34:06;98015.97;;;6.11;84.14
27712;BME280;2377;51.734;8.950;2023-04-20T02:36:34;98018.16;;;6.14;83.81
27712;BME280;2377;51.734;8.950;2023-04-20T02:39:01;98020.50;;;6.16;84.27
27712;BME280;2377;51.734;8.950;2023-04-20T02:41:28;98011.84;;;6.10;83.97
27712;BME280;2377;51.734;8.950;2023-04-20T02:43:55;98017.72;;;6.11;83.65
27712;BME280;2377;51.734;8.950;2023-04-20T02:46:21;98015.38;;;6.09;84.42
27712;BME280;2377;51.734;8.950;2023-04-20T02:48:50;98020.78;;;6.06;83.88
27712;BME280;2377;51.734;8.950;2023-04-20T02:51:17;98020.16;;;6.04;83.88
27712;BME280;2377;51.734;8.950;2023-04-20T02:53:43;98013.53;;;6.03;83.72
27712;BME280;2377;51.734;8.950;2023-04-20T02:56:10;98011.78;;;6.04;83.75
27712;BME280;2377;51.734;8.950;2023-04-20T02:58:37;98000.75;;;5.97;84.31
27712;BME280;2377;51.734;8.950;2023-04-20T03:01:04;97999.88;;;5.89;84.05
27712;BME280;2377;51.734;8.950;2023-04-20T03:03:32;98000.41;;;5.85;84.39
27712;BME280;2377;51.734;8.950;2023-04-20T03:06:00;97999.78;;;5.83;84.61
27712;BME280;2377;51.734;8.950;2023-04-20T03:08:27;97998.38;;;5.80;85.45
27712;BME280;2377;51.734;8.950;2023-04-20T03:10:53;97996.31;;;5.84;84.45
27712;BME280;2377;51.734;8.950;2023-04-20T03:13:20;97999.16;;;5.81;85.06
27712;BME280;2377;51.734;8.950;2023-04-20T03:15:47;97996.63;;;5.81;84.72
27712;BME280;2377;51.734;8.950;2023-04-20T03:18:14;97995.06;;;5.80;84.88
27712;BME280;2377;51.734;8.950;2023-04-20T03:20:41;97990.00;;;5.80;85.01
27712;BME280;2377;51.734;8.950;2023-04-20T03:23:09;97983.53;;;5.77;85.06
27712;BME280;2377;51.734;8.950;2023-04-20T03:25:36;97975.75;;;5.79;85.32
27712;BME280;2377;51.734;8.950;2023-04-20T03:28:03;97976.72;;;5.78;85.59
27712;BME280;2377;51.734;8.950;2023-04-20T03:30:30;97985.47;;;5.75;85.80
27712;BME280;2377;51.734;8.950;2023-04-20T03:32:57;97981.69;;;5.71;86.08
27712;BME280;2377;51.734;8.950;2023-04-20T03:35:24;97986.97;;;5.69;86.07
27712;BME280;2377;51.734;8.950;2023-04-20T03:37:51;97982.66;;;5.70;86.60
27712;BME280;2377;51.734;8.950;2023-04-20T03:40:19;97981.06;;;5.69;86.82
27712;BME280;2377;51.734;8.950;2023-04-20T03:42:46;97981.59;;;5.64;86.62
27712;BME280;2377;51.734;8.950;2023-04-20T03:45:14;97981.28;;;5.67;86.98
27712;BME280;2377;51.734;8.950;2023-04-20T03:47:41;97980.50;;;5.67;86.98
27712;BME280;2377;51.734;8.950;2023-04-20T03:50:09;97973.66;;;5.67;86.86
27712;BME280;2377;51.734;8.950;2023-04-20T03:52:36;97982.41;;;5.65;87.70
27712;BME280;2377;51.734;8.950;2023-04-20T03:55:04;97984.16;;;5.64;88.05
27712;BME280;2377;51.734;8.950;2023-04-20T03:57:32;97975.13;;;5.62;88.16
27712;BME280;2377;51.734;8.950;2023-04-20T03:59:59;97976.91;;;5.61;88.75
27712;BME280;2377;51.734;8.950;2023-04-20T04:02:26;97975.34;;;5.60;88.75
27712;BME280;2377;51.734;8.950;2023-04-20T04:04:53;97972.03;;;5.60;89.09
27712;BME280;2377;51.734;8.950;2023-04-20T04:07:20;97972.19;;;5.58;89.14
27712;BME280;2377;51.734;8.950;2023-04-20T04:09:47;97961.44;;;5.56;89.76
27712;BME280;2377;51.734;8.950;2023-04-20T04:12:14;97979.00;;;5.58;90.10
27712;BME280;2377;51.734;8.950;2023-04-20T04:14:43;97974.56;;;5.60;90.21
27712;BME280;2377;51.734;8.950;2023-04-20T04:17:12;97981.34;;;5.59;90.41
27712;BME280;2377;51.734;8.950;2023-04-20T04:19:39;97970.00;;;5.55;89.95
27712;BME280;2377;51.734;8.950;2023-04-20T04:22:08;97966.25;;;5.51;90.69
27712;BME280;2377;51.734;8.950;2023-04-20T04:24:35;97963.72;;;5.51;90.79
27712;BME280;2377;51.734;8.950;2023-04-20T04:27:03;97964.31;;;5.53;90.26
27712;BME280;2377;51.734;8.950;2023-04-20T04:29:30;97965.28;;;5.52;89.86
27712;BME280;2377;51.734;8.950;2023-04-20T04:32:01;97964.31;;;5.53;89.89
27712;BME280;2377;51.734;8.950;2023-04-20T04:34:30;97965.28;;;5.52;89.92
27712;BME280;2377;51.734;8.950;2023-04-20T04:36:58;97975.09;;;5.55;90.12
27712;BME280;2377;51.734;8.950;2023-04-20T04:39:26;97953.81;;;5.56;90.05
27712;BME280;2377;51.734;8.950;2023-04-20T04:41:53;97967.47;;;5.55;90.43
27712;BME280;2377;51.734;8.950;2023-04-20T04:44:20;97971.56;;;5.56;90.58
27712;BME280;2377;51.734;8.950;2023-04-20T04:46:47;97974.28;;;5.55;90.64
27712;BME280;2377;51.734;8.950;2023-04-20T04:49:15;97975.09;;;5.55;90.49
27712;BME280;2377;51.734;8.950;2023-04-20T04:51:43;97982.16;;;5.60;90.95
27712;BME280;2377;51.734;8.950;2023-04-20T04:54:10;97976.13;;;5.61;90.81
27712;BME280;2377;51.734;8.950;2023-04-20T04:56:37;97963.59;;;5.59;90.83
27712;BME280;2377;51.734;8.950;2023-04-20T04:59:04;97959.94;;;5.62;90.75
27712;BME280;2377;51.734;8.950;2023-04-20T05:01:31;97969.75;;;5.65;90.85
27712;BME280;2377;51.734;8.950;2023-04-20T05:03:58;97966.41;;;5.64;91.11
27712;BME280;2377;51.734;8.950;2023-04-20T05:06:26;97979.53;;;5.68;90.74
27712;BME280;2377;51.734;8.950;2023-04-20T05:08:53;97980.13;;;5.70;90.42
27712;BME280;2377;51.734;8.950;2023-04-20T05:11:20;97980.56;;;5.73;90.26
27712;BME280;2377;51.734;8.950;2023-04-20T05:13:47;97976.28;;;5.74;90.34
27712;BME280;2377;51.734;8.950;2023-04-20T05:16:14;97985.28;;;5.77;90.29
27712;BME280;2377;51.734;8.950;2023-04-20T05:18:41;97976.88;;;5.76;90.03
27712;BME280;2377;51.734;8.950;2023-04-20T05:21:08;97968.47;;;5.76;90.22
27712;BME280;2377;51.734;8.950;2023-04-20T05:23:37;97975.16;;;5.77;90.46
27712;BME280;2377;51.734;8.950;2023-04-20T05:26:04;97979.41;;;5.76;90.04
27712;BME280;2377;51.734;8.950;2023-04-20T05:28:32;97976.34;;;5.81;89.91
27712;BME280;2377;51.734;8.950;2023-04-20T05:30:59;97976.00;;;5.84;89.92
27712;BME280;2377;51.734;8.950;2023-04-20T05:33:26;97975.66;;;5.87;89.70
27712;BME280;2377;51.734;8.950;2023-04-20T05:35:55;97975.91;;;5.92;89.97
27712;BME280;2377;51.734;8.950;2023-04-20T05:38:23;97983.50;;;5.92;89.51
27712;BME280;2377;51.734;8.950;2023-04-20T05:40:51;97978.13;;;5.95;89.54
27712;BME280;2377;51.734;8.950;2023-04-20T05:43:18;97979.22;;;5.92;89.78
27712;BME280;2377;51.734;8.950;2023-04-20T05:45:47;97983.19;;;5.95;89.13
27712;BME280;2377;51.734;8.950;2023-04-20T05:48:14;97976.16;;;5.97;89.46
27712;BME280;2377;51.734;8.950;2023-04-20T05:50:41;97978.72;;;5.97;89.72
27712;BME280;2377;51.734;8.950;2023-04-20T05:53:08;97983.50;;;5.92;90.12
27712;BME280;2377;51.734;8.950;2023-04-20T05:55:34;97988.28;;;5.95;89.88
27712;BME280;2377;51.734;8.950;2023-04-20T05:58:03;97986.53;;;5.96;90.27
27712;BME280;2377;51.734;8.950;2023-04-20T06:00:30;97991.41;;;5.97;90.37
27712;BME280;2377;51.734;8.950;2023-04-20T06:02:57;97982.47;;;6.01;90.22
27712;BME280;2377;51.734;8.950;2023-04-20T06:05:24;97986.59;;;6.02;90.33
27712;BME280;2377;51.734;8.950;2023-04-20T06:07:51;97985.63;;;6.03;90.00
27712;BME280;2377;51.734;8.950;2023-04-20T06:10:18;97993.84;;;6.05;90.16
27712;BME280;2377;51.734;8.950;2023-04-20T06:12:45;97990.53;;;6.05;89.44
27712;BME280;2377;51.734;8.950;2023-04-20T06:15:13;97990.16;;;6.08;89.95
27712;BME280;2377;51.734;8.950;2023-04-20T06:17:40;97981.78;;;6.07;90.00
27712;BME280;2377;51.734;8.950;2023-04-20T06:20:09;97993.47;;;6.08;90.04
27712;BME280;2377;51.734;8.950;2023-04-20T06:22:40;97989.56;;;6.06;90.25
27712;BME280;2377;51.734;8.950;2023-04-20T06:25:08;97993.84;;;6.05;90.18
27712;BME280;2377;51.734;8.950;2023-04-20T06:27:36;97992.09;;;6.06;90.18
27712;BME280;2377;51.734;8.950;2023-04-20T06:30:04;97988.22;;;6.10;90.12
27712;BME280;2377;51.734;8.950;2023-04-20T06:32:33;97988.06;;;6.11;89.58
27712;BME280;2377;51.734;8.950;2023-04-20T06:34:59;97992.78;;;6.14;90.44
27712;BME280;2377;51.734;8.950;2023-04-20T06:37:26;97990.84;;;6.17;90.01
27712;BME280;2377;51.734;8.950;2023-04-20T06:39:53;97992.00;;;6.14;89.51
27712;BME280;2377;51.734;8.950;2023-04-20T06:42:21;97994.88;;;6.11;89.54
27712;BME280;2377;51.734;8.950;2023-04-20T06:44:48;97996.63;;;6.10;89.30
27712;BME280;2377;51.734;8.950;2023-04-20T06:47:14;98001.34;;;6.13;89.49
27712;BME280;2377;51.734;8.950;2023-04-20T06:49:43;97999.25;;;6.17;89.71
27712;BME280;2377;51.734;8.950;2023-04-20T06:52:10;97997.47;;;6.18;89.03
27712;BME280;2377;51.734;8.950;2023-04-20T06:54:36;98000.03;;;6.18;89.02
27712;BME280;2377;51.734;8.950;2023-04-20T06:57:03;98005.25;;;6.16;89.26
27712;BME280;2377;51.734;8.950;2023-04-20T06:59:30;98004.84;;;6.12;89.27
27712;BME280;2377;51.734;8.950;2023-04-20T07:01:57;98002.06;;;6.07;89.25
27712;BME280;2377;51.734;8.950;2023-04-20T07:04:24;98005.56;;;6.06;88.57
27712;BME280;2377;51.734;8.950;2023-04-20T07:06:52;98012.22;;;6.07;89.27
27712;BME280;2377;51.734;8.950;2023-04-20T07:09:19;98009.94;;;6.12;88.92
27712;BME280;2377;51.734;8.950;2023-04-20T07:11:47;98009.94;;;6.12;89.28
27712;BME280;2377;51.734;8.950;2023-04-20T07:14:14;98009.75;;;6.14;88.93
27712;BME280;2377;51.734;8.950;2023-04-20T07:16:41;98010.69;;;6.13;88.10
27712;BME280;2377;51.734;8.950;2023-04-20T07:19:08;98014.03;;;6.13;88.72
27712;BME280;2377;51.734;8.950;2023-04-20T07:21:35;98015.41;;;6.16;88.35
27712;BME280;2377;51.734;8.950;2023-04-20T07:24:05;98002.56;;;6.18;88.21
27712;BME280;2377;51.734;8.950;2023-04-20T07:26:31;98012.00;;;6.24;88.39
27712;BME280;2377;51.734;8.950;2023-04-20T07:28:58;98011.28;;;6.30;88.99
27712;BME280;2377;51.734;8.950;2023-04-20T07:31:25;98009.00;;;6.35;89.13
27712;BME280;2377;51.734;8.950;2023-04-20T07:33:52;98010.56;;;6.36;88.75
27712;BME280;2377;51.734;8.950;2023-04-20T07:36:19;98010.81;;;6.41;88.44
27712;BME280;2377;51.734;8.950;2023-04-20T07:38:47;98014.19;;;6.48;89.30
27712;BME280;2377;51.734;8.950;2023-04-20T07:41:15;98021.09;;;6.54;88.38
27712;BME280;2377;51.734;8.950;2023-04-20T07:43:42;98020.13;;;6.55;88.99
27712;BME280;2377;51.734;8.950;2023-04-20T07:46:18;98018.19;;;6.57;89.11
27712;BME280;2377;51.734;8.950;2023-04-20T07:48:45;98021.78;;;6.63;88.57
27712;BME280;2377;51.734;8.950;2023-04-20T07:51:12;98024.50;;;6.62;87.72
27712;BME280;2377;51.734;8.950;2023-04-20T07:53:39;98022.72;;;6.62;87.41
27712;BME280;2377;51.734;8.950;2023-04-20T07:56:06;98023.75;;;6.68;87.75
27712;BME280;2377;51.734;8.950;2023-04-20T07:58:35;98020.66;;;6.72;88.01
27712;BME280;2377;51.734;8.950;2023-04-20T08:01:03;98021.47;;;6.73;86.76
27712;BME280;2377;51.734;8.950;2023-04-20T08:03:30;98026.56;;;6.73;87.59
27712;BME280;2377;51.734;8.950;2023-04-20T08:05:58;98026.97;;;6.76;86.84
27712;BME280;2377;51.734;8.950;2023-04-20T08:08:24;98027.31;;;6.73;86.71
27712;BME280;2377;51.734;8.950;2023-04-20T08:10:51;98033.19;;;6.74;86.23
27712;BME280;2377;51.734;8.950;2023-04-20T08:13:18;98031.19;;;6.69;86.25
27712;BME280;2377;51.734;8.950;2023-04-20T08:15:46;98032.94;;;6.69;85.59
27712;BME280;2377;51.734;8.950;2023-04-20T08:18:13;98032.50;;;6.65;86.73
27712;BME280;2377;51.734;8.950;2023-04-20T08:20:43;98035.88;;;6.66;86.32
27712;BME280;2377;51.734;8.950;2023-04-20T08:23:10;98036.66;;;6.66;85.71
27712;BME280;2377;51.734;8.950;2023-04-20T08:25:38;98036.44;;;6.68;86.44
27712;BME280;2377;51.734;8.950;2023-04-20T08:28:06;98038.97;;;6.68;85.47
27712;BME280;2377;51.734;8.950;2023-04-20T08:30:33;98033.31;;;6.66;85.46
27712;BME280;2377;51.734;8.950;2023-04-20T08:33:02;98044.44;;;6.65;85.18
27712;BME280;2377;51.734;8.950;2023-04-20T08:35:29;98045.03;;;6.67;85.04
27712;BME280;2377;51.734;8.950;2023-04-20T08:37:55;98039.78;;;6.68;85.58
27712;BME280;2377;51.734;8.950;2023-04-20T08:40:22;98044.34;;;6.73;85.29
27712;BME280;2377;51.734;8.950;2023-04-20T08:42:50;98044.56;;;6.78;85.29
27712;BME280;2377;51.734;8.950;2023-04-20T08:45:17;98047.34;;;6.83;85.33
27712;BME280;2377;51.734;8.950;2023-04-20T08:47:44;98053.97;;;6.84;85.58
27712;BME280;2377;51.734;8.950;2023-04-20T08:50:13;98050.91;;;6.89;85.41
27712;BME280;2377;51.734;8.950;2023-04-20T08:52:41;98048.41;;;6.95;85.29
27712;BME280;2377;51.734;8.950;2023-04-20T08:55:08;98055.09;;;6.96;84.87
27712;BME280;2377;51.734;8.950;2023-04-20T08:57:35;98052.56;;;6.96;84.59
27712;BME280;2377;51.734;8.950;2023-04-20T09:00:05;98049.03;;;6.97;85.04
27712;BME280;2377;51.734;8.950;2023-04-20T09:02:34;98052.19;;;6.99;84.24
27712;BME280;2377;51.734;8.950;2023-04-20T09:05:03;98055.31;;;7.02;84.14
27712;BME280;2377;51.734;8.950;2023-04-20T09:07:31;98051.06;;;7.09;84.63
27712;BME280;2377;51.734;8.950;2023-04-20T09:09:59;98053.75;;;7.29;85.22
27712;BME280;2377;51.734;8.950;2023-04-20T09:12:27;98052.94;;;7.50;85.04
27712;BME280;2377;51.734;8.950;2023-04-20T09:14:54;98054.00;;;7.62;84.53
27712;BME280;2377;51.734;8.950;2023-04-20T09:17:31;98056.38;;;7.70;82.37
27712;BME280;2377;51.734;8.950;2023-04-20T09:19:59;98058.78;;;7.78;84.04
27712;BME280;2377;51.734;8.950;2023-04-20T09:22:32;98062.50;;;7.82;82.45
27712;BME280;2377;51.734;8.950;2023-04-20T09:24:59;98045.69;;;7.81;81.15
27712;BME280;2377;51.734;8.950;2023-04-20T09:27:27;98053.91;;;7.83;82.19
27712;BME280;2377;51.734;8.950;2023-04-20T09:29:58;98058.81;;;7.85;79.09
27712;BME280;2377;51.734;8.950;2023-04-20T09:32:27;98051.59;;;7.89;81.00
27712;BME280;2377;51.734;8.950;2023-04-20T09:34:54;98055.59;;;8.11;80.71
27712;BME280;2377;51.734;8.950;2023-04-20T09:37:21;98056.84;;;8.29;81.70
27712;BME280;2377;51.734;8.950;2023-04-20T09:39:50;98044.53;;;8.39;78.61
27712;BME280;2377;51.734;8.950;2023-04-20T09:42:17;98045.56;;;8.44;79.17
27712;BME280;2377;51.734;8.950;2023-04-20T09:44:44;98057.34;;;8.59;78.72
27712;BME280;2377;51.734;8.950;2023-04-20T09:47:17;98067.16;;;8.68;78.38
27712;BME280;2377;51.734;8.950;2023-04-20T09:49:44;98056.97;;;8.68;74.96
27712;BME280;2377;51.734;8.950;2023-04-20T09:52:16;98063.81;;;8.61;76.16
27712;BME280;2377;51.734;8.950;2023-04-20T09:54:44;98058.31;;;8.58;74.11
27712;BME280;2377;51.734;8.950;2023-04-20T09:57:13;98063.59;;;8.50;76.10
27712;BME280;2377;51.734;8.950;2023-04-20T09:59:42;98050.28;;;8.54;75.54
27712;BME280;2377;51.734;8.950;2023-04-20T10:02:10;98061.06;;;8.63;75.60
27712;BME280;2377;51.734;8.950;2023-04-20T10:07:24;98071.69;;;8.73;74.07
27712;BME280;2377;51.734;8.950;2023-04-20T10:10:06;98064.41;;;8.70;74.06
27712;BME280;2377;51.734;8.950;2023-04-20T10:12:46;98058.94;;;8.66;74.80
27712;BME280;2377;51.734;8.950;2023-04-20T10:15:13;98071.81;;;8.58;74.23
27712;BME280;2377;51.734;8.950;2023-04-20T10:17:41;98070.06;;;8.52;75.07
27712;BME280;2377;51.734;8.950;2023-04-20T10:20:19;98065.16;;;8.57;75.12
27712;BME280;2377;51.734;8.950;2023-04-20T10:22:46;98065.38;;;8.62;76.42
27712;BME280;2377;51.734;8.950;2023-04-20T10:25:16;98072.06;;;8.63;74.26
27712;BME280;2377;51.734;8.950;2023-04-20T10:27:57;98076.56;;;8.61;75.01
27712;BME280;2377;51.734;8.950;2023-04-20T10:30:25;98073.03;;;8.62;73.70
27712;BME280;2377;51.734;8.950;2023-04-20T10:33:04;98065.00;;;8.72;74.67
27712;BME280;2377;51.734;8.950;2023-04-20T10:35:41;98057.00;;;8.82;75.27
27712;BME280;2377;51.734;8.950;2023-04-20T10:38:09;98058.19;;;8.99;74.75
27712;BME280;2377;51.734;8.950;2023-04-20T10:40:37;98056.59;;;9.18;75.80
27712;BME280;2377;51.734;8.950;2023-04-20T10:43:18;98053.44;;;9.49;75.08
27712;BME280;2377;51.734;8.950;2023-04-20T10:45:46;98049.09;;;9.70;73.60
27712;BME280;2377;51.734;8.950;2023-04-20T10:48:13;98039.63;;;9.84;71.46
27712;BME280;2377;51.734;8.950;2023-04-20T10:50:40;98051.81;;;9.82;69.94
27712;BME280;2377;51.734;8.950;2023-04-20T10:53:18;98036.50;;;9.75;68.76
27712;BME280;2377;51.734;8.950;2023-04-20T10:55:45;98042.59;;;9.74;69.70
27712;BME280;2377;51.734;8.950;2023-04-20T10:58:23;98043.97;;;9.70;69.67
27712;BME280;2377;51.734;8.950;2023-04-20T11:00:58;98045.34;;;9.66;68.56
27712;BME280;2377;51.734;8.950;2023-04-20T11:03:27;98046.72;;;9.62;69.28
27712;BME280;2377;51.734;8.950;2023-04-20T11:05:54;98053.44;;;9.56;67.88
27712;BME280;2377;51.734;8.950;2023-04-20T11:08:35;98038.94;;;9.43;67.50
27712;BME280;2377;51.734;8.950;2023-04-20T11:11:03;98033.63;;;9.38;67.95
27712;BME280;2377;51.734;8.950;2023-04-20T11:13:32;98045.00;;;9.36;67.96
27712;BME280;2377;51.734;8.950;2023-04-20T11:15:59;98042.28;;;9.30;68.04
27712;BME280;2377;51.734;8.950;2023-04-20T11:18:34;98032.06;;;9.24;67.98
27712;BME280;2377;51.734;8.950;2023-04-20T11:21:02;98034.63;;;9.24;68.22
27712;BME280;2377;51.734;8.950;2023-04-20T11:23:36;98040.53;;;9.24;66.83
27712;BME280;2377;51.734;8.950;2023-04-20T11:26:04;98029.34;;;9.25;67.00
27712;BME280;2377;51.734;8.950;2023-04-20T11:28:32;98028.56;;;9.25;68.20
27712;BME280;2377;51.734;8.950;2023-04-20T11:31:00;98031.69;;;9.27;68.00
27712;BME280;2377;51.734;8.950;2023-04-20T11:33:29;98036.41;;;9.30;68.51
27712;BME280;2377;51.734;8.950;2023-04-20T11:35:58;98039.13;;;9.35;69.40
27712;BME280;2377;51.734;8.950;2023-04-20T11:38:28;98036.97;;;9.39;68.78
27712;BME280;2377;51.734;8.950;2023-04-20T11:40:56;98040.91;;;9.41;67.69
27712;BME280;2377;51.734;8.950;2023-04-20T11:43:29;98034.81;;;9.42;66.69
27712;BME280;2377;51.734;8.950;2023-04-20T11:45:58;98025.97;;;9.45;67.63
27712;BME280;2377;51.734;8.950;2023-04-20T11:48:25;98029.09;;;9.47;65.76
27712;BME280;2377;51.734;8.950;2023-04-20T11:50:56;98022.22;;;9.54;67.17
27712;BME280;2377;51.734;8.950;2023-04-20T11:53:23;98022.38;;;9.66;67.65
27712;BME280;2377;51.734;8.950;2023-04-20T11:55:50;98018.81;;;9.80;66.68
27712;BME280;2377;51.734;8.950;2023-04-20T11:58:16;98013.84;;;9.99;66.06
27712;BME280;2377;51.734;8.950;2023-04-20T12:00:43;98004.72;;;10.16;66.94
27712;BME280;2377;51.734;8.950;2023-04-20T12:03:11;98012.31;;;10.36;66.55
27712;BME280;2377;51.734;8.950;2023-04-20T12:05:39;98008.84;;;10.55;68.59
27712;BME280;2377;51.734;8.950;2023-04-20T12:08:07;98002.59;;;10.76;67.36
27712;BME280;2377;51.734;8.950;2023-04-20T12:10:34;98005.06;;;10.90;66.33
27712;BME280;2377;51.734;8.950;2023-04-20T12:13:01;98004.53;;;11.06;66.62
27712;BME280;2377;51.734;8.950;2023-04-20T12:15:28;98003.47;;;11.14;66.51
27712;BME280;2377;51.734;8.950;2023-04-20T12:17:55;98013.28;;;11.17;66.65
27712;BME280;2377;51.734;8.950;2023-04-20T12:20:23;98022.69;;;11.23;64.91
27712;BME280;2377;51.734;8.950;2023-04-20T12:22:50;98011.38;;;11.12;63.13
27712;BME280;2377;51.734;8.950;2023-04-20T12:25:17;98010.75;;;10.92;61.93
27712;BME280;2377;51.734;8.950;2023-04-20T12:27:44;97999.78;;;10.85;63.96
27712;BME280;2377;51.734;8.950;2023-04-20T12:30:12;98004.44;;;10.94;61.82
27712;BME280;2377;51.734;8.950;2023-04-20T12:32:41;98003.31;;;11.09;64.10
27712;BME280;2377;51.734;8.950;2023-04-20T12:35:08;98001.78;;;11.26;64.42
27712;BME280;2377;51.734;8.950;2023-04-20T12:37:36;98011.69;;;11.41;64.02
27712;BME280;2377;51.734;8.950;2023-04-20T12:40:04;97999.75;;;11.53;63.65
27712;BME280;2377;51.734;8.950;2023-04-20T12:42:32;97999.47;;;11.43;62.18
27712;BME280;2377;51.734;8.950;2023-04-20T12:44:59;98001.16;;;11.31;61.78
27712;BME280;2377;51.734;8.950;2023-04-20T12:47:26;97999.03;;;11.28;61.11
27712;BME280;2377;51.734;8.950;2023-04-20T12:49:52;97995.06;;;11.32;61.53
27712;BME280;2377;51.734;8.950;2023-04-20T12:52:19;97994.75;;;11.21;60.89
27712;BME280;2377;51.734;8.950;2023-04-20T12:54:48;97989.34;;;11.11;62.07
27712;BME280;2377;51.734;8.950;2023-04-20T12:57:15;97996.56;;;10.96;60.52
27712;BME280;2377;51.734;8.950;2023-04-20T12:59:42;97988.56;;;10.86;61.63
27712;BME280;2377;51.734;8.950;2023-04-20T13:02:09;97985.56;;;10.89;60.73
27712;BME280;2377;51.734;8.950;2023-04-20T13:04:36;97978.50;;;10.91;62.45
27712;BME280;2377;51.734;8.950;2023-04-20T13:07:03;97982.97;;;10.95;62.18
27712;BME280;2377;51.734;8.950;2023-04-20T13:09:30;97992.53;;;11.07;64.18
27712;BME280;2377;51.734;8.950;2023-04-20T13:11:58;97996.59;;;11.33;66.41
27712;BME280;2377;51.734;8.950;2023-04-20T13:14:25;97985.53;;;11.39;62.13
27712;BME280;2377;51.734;8.950;2023-04-20T13:16:52;97991.34;;;11.28;61.83
27712;BME280;2377;51.734;8.950;2023-04-20T13:19:19;97994.75;;;11.21;60.77
27712;BME280;2377;51.734;8.950;2023-04-20T13:21:46;97979.72;;;11.07;59.87
27712;BME280;2377;51.734;8.950;2023-04-20T13:24:13;97985.13;;;10.98;60.46
27712;BME280;2377;51.734;8.950;2023-04-20T13:26:40;97982.91;;;11.02;60.80